sensor_id;sensor_type;location;lat;lon;timestamp;temperature;humidity
4052;DHT22;2040;50.924;11.604;2023-04-03T00:00:10;1.60;99.90
4052;DHT22;2040;50.924;11.604;2023-04-03T00:02:36;1.60;99.90
4052;DHT22;2040;50.924;11.604;2023-04-03T00:05:01;1.60;99.90
4052;DHT22;2040;50.924;11.604;2023-04-03T00:07:27;1.50;99.90
4052;DHT22;2040;50.924;11.604;2023-04-03T00:09:52;1.50;99.90
4052;DHT22;2040;50.924;11.604;2023-04-03T00:12:18;1.40;99.90
4052;DHT22;2040;50.924;11.604;2023-04-03T00:14:43;1.40;99.90
4052;DHT22;2040;50.924;11.604;2023-04-03T00:17:09;1.40;99.90
4052;DHT22;2040;50.924;11.604;2023-04-03T00:19:35;1.30;99.90
4052;DHT22;2040;50.924;11.604;2023-04-03T00:22:00;1.30;99.90
4052;DHT22;2040;50.924;11.604;2023-04-03T00:24:26;1.30;99.90
4052;DHT22;2040;50.924;11.604;2023-04-03T00:26:51;1.30;99.90
4052;DHT22;2040;50.924;11.604;2023-04-03T00:29:17;1.30;99.90
4052;DHT22;2040;50.924;11.604;2023-04-03T00:31:42;1.30;99.90
4052;DHT22;2040;50.924;11.604;2023-04-03T00:34:08;1.40;99.90
4052;DHT22;2040;50.924;11.604;2023-04-03T00:36:33;1.20;99.90
4052;DHT22;2040;50.924;11.604;2023-04-03T00:38:59;1.20;99.90
4052;DHT22;2040;50.924;11.604;2023-04-03T00:41:25;1.20;99.90
4052;DHT22;2040;50.924;11.604;2023-04-03T00:43:50;1.10;99.90
4052;DHT22;2040;50.924;11.604;2023-04-03T00:46:16;1.10;99.90
4052;DHT22;2040;50.924;11.604;2023-04-03T00:48:44;1.10;99.90
4052;DHT22;2040;50.924;11.604;2023-04-03T00:51:14;1.20;99.90
4052;DHT22;2040;50.924;11.604;2023-04-03T00:54:01;1.10;99.90
4052;DHT22;2040;50.924;11.604;2023-04-03T00:56:29;1.00;99.90
4052;DHT22;2040;50.924;11.604;2023-04-03T00:58:59;1.00;99.90
4052;DHT22;2040;50.924;11.604;2023-04-03T01:01:28;1.00;99.90
4052;DHT22;2040;50.924;11.604;2023-04-03T01:03:54;1.00;99.90
4052;DHT22;2040;50.924;11.604;2023-04-03T01:06:24;1.00;99.90
4052;DHT22;2040;50.924;11.604;2023-04-03T01:08:51;0.90;99.90
4052;DHT22;2040;50.924;11.604;2023-04-03T01:11:17;0.90;99.90
4052;DHT22;2040;50.924;11.604;2023-04-03T01:13:43;1.00;99.90
4052;DHT22;2040;50.924;11.604;2023-04-03T01:16:09;0.90;99.90
4052;DHT22;2040;50.924;11.604;2023-04-03T01:18:37;0.90;99.90
4052;DHT22;2040;50.924;11.604;2023-04-03T01:21:26;0.90;99.90
4052;DHT22;2040;50.924;11.604;2023-04-03T01:24:21;0.90;99.90
4052;DHT22;2040;50.924;11.604;2023-04-03T01:26:49;0.90;99.90
4052;DHT22;2040;50.924;11.604;2023-04-03T01:29:15;0.90;99.90
4052;DHT22;2040;50.924;11.604;2023-04-03T01:31:44;0.90;99.90
4052;DHT22;2040;50.924;11.604;2023-04-03T01:34:10;0.90;99.90
4052;DHT22;2040;50.924;11.604;2023-04-03T01:36:35;0.90;99.90
4052;DHT22;2040;50.924;11.604;2023-04-03T01:39:01;1.00;99.90
4052;DHT22;2040;50.924;11.604;2023-04-03T01:41:27;0.90;99.90
4052;DHT22;2040;50.924;11.604;2023-04-03T01:43:53;0.80;99.90
4052;DHT22;2040;50.924;11.604;2023-04-03T01:46:19;0.80;99.90
4052;DHT22;2040;50.924;11.604;2023-04-03T01:48:45;0.80;99.90
4052;DHT22;2040;50.924;11.604;2023-04-03T01:51:12;0.80;99.90
4052;DHT22;2040;50.924;11.604;2023-04-03T01:53:37;0.70;99.90
4052;DHT22;2040;50.924;11.604;2023-04-03T01:56:03;0.70;99.90
4052;DHT22;2040;50.924;11.604;2023-04-03T01:58:29;0.70;99.90
4052;DHT22;2040;50.924;11.604;2023-04-03T02:00:55;0.70;99.90
4052;DHT22;2040;50.924;11.604;2023-04-03T02:03:21;0.70;99.90
4052;DHT22;2040;50.924;11.604;2023-04-03T02:05:47;0.70;99.90
4052;DHT22;2040;50.924;11.604;2023-04-03T02:08:12;0.70;99.90
4052;DHT22;2040;50.924;11.604;2023-04-03T02:10:38;0.60;99.90
4052;DHT22;2040;50.924;11.604;2023-04-03T02:13:03;0.70;99.90
4052;DHT22;2040;50.924;11.604;2023-04-03T02:15:29;0.70;99.90
4052;DHT22;2040;50.924;11.604;2023-04-03T02:17:54;0.70;99.90
4052;DHT22;2040;50.924;11.604;2023-04-03T02:20:20;0.60;99.90
4052;DHT22;2040;50.924;11.604;2023-04-03T02:22:46;0.60;99.90
4052;DHT22;2040;50.924;11.604;2023-04-03T02:25:12;0.60;99.90
4052;DHT22;2040;50.924;11.604;2023-04-03T02:27:38;0.60;99.90
4052;DHT22;2040;50.924;11.604;2023-04-03T02:30:04;0.60;99.90
4052;DHT22;2040;50.924;11.604;2023-04-03T02:32:31;0.60;99.90
4052;DHT22;2040;50.924;11.604;2023-04-03T02:34:56;0.60;99.90
4052;DHT22;2040;50.924;11.604;2023-04-03T02:37:22;0.50;99.90
4052;DHT22;2040;50.924;11.604;2023-04-03T02:39:47;0.40;99.90
4052;DHT22;2040;50.924;11.604;2023-04-03T02:42:13;0.40;99.90
4052;DHT22;2040;50.924;11.604;2023-04-03T02:44:38;0.40;99.90
4052;DHT22;2040;50.924;11.604;2023-04-03T02:47:04;0.30;99.90
4052;DHT22;2040;50.924;11.604;2023-04-03T02:49:30;0.30;99.90
4052;DHT22;2040;50.924;11.604;2023-04-03T02:51:56;0.20;99.90
4052;DHT22;2040;50.924;11.604;2023-04-03T02:54:22;0.20;99.90
4052;DHT22;2040;50.924;11.604;2023-04-03T02:56:49;0.20;99.90
4052;DHT22;2040;50.924;11.604;2023-04-03T02:59:15;0.20;99.90
4052;DHT22;2040;50.924;11.604;2023-04-03T03:01:41;0.10;99.90
4052;DHT22;2040;50.924;11.604;2023-04-03T03:04:06;0.00;99.90
4052;DHT22;2040;50.924;11.604;2023-04-03T03:06:32;0.00;99.90
4052;DHT22;2040;50.924;11.604;2023-04-03T03:08:57;0.00;99.90
4052;DHT22;2040;50.924;11.604;2023-04-03T03:11:23;-0.10;99.90
4052;DHT22;2040;50.924;11.604;2023-04-03T03:13:49;-0.20;99.90
4052;DHT22;2040;50.924;11.604;2023-04-03T03:16:14;-0.10;99.90
4052;DHT22;2040;50.924;11.604;2023-04-03T03:18:40;-0.30;99.90
4052;DHT22;2040;50.924;11.604;2023-04-03T03:21:06;-0.30;99.90
4052;DHT22;2040;50.924;11.604;2023-04-03T03:23:32;-0.30;99.90
4052;DHT22;2040;50.924;11.604;2023-04-03T03:26:00;-0.20;99.90
4052;DHT22;2040;50.924;11.604;2023-04-03T03:28:26;-0.30;99.90
4052;DHT22;2040;50.924;11.604;2023-04-03T03:30:51;-0.30;99.90
4052;DHT22;2040;50.924;11.604;2023-04-03T03:33:17;-0.30;99.90
4052;DHT22;2040;50.924;11.604;2023-04-03T03:35:44;-0.30;99.90
4052;DHT22;2040;50.924;11.604;2023-04-03T03:38:09;-0.40;99.90
4052;DHT22;2040;50.924;11.604;2023-04-03T03:40:35;-0.40;99.90
4052;DHT22;2040;50.924;11.604;2023-04-03T03:43:01;-0.40;99.90
4052;DHT22;2040;50.924;11.604;2023-04-03T03:45:26;-0.40;99.90
4052;DHT22;2040;50.924;11.604;2023-04-03T03:47:52;-0.30;99.90
4052;DHT22;2040;50.924;11.604;2023-04-03T03:50:18;-0.40;99.90
4052;DHT22;2040;50.924;11.604;2023-04-03T03:52:43;-0.50;99.90
4052;DHT22;2040;50.924;11.604;2023-04-03T03:55:10;-0.40;99.90
4052;DHT22;2040;50.924;11.604;2023-04-03T03:57:35;-0.50;99.90
4052;DHT22;2040;50.924;11.604;2023-04-03T04:00:01;-0.50;99.90
4052;DHT22;2040;50.924;11.604;2023-04-03T04:02:26;-0.60;99.90
4052;DHT22;2040;50.924;11.604;2023-04-03T04:04:52;-0.60;99.90
4052;DHT22;2040;50.924;11.604;2023-04-03T04:07:18;-0.60;99.90
4052;DHT22;2040;50.924;11.604;2023-04-03T04:09:43;-0.70;99.90
4052;DHT22;2040;50.924;11.604;2023-04-03T04:12:09;-0.70;99.90
4052;DHT22;2040;50.924;11.604;2023-04-03T04:14:34;-0.70;99.90
4052;DHT22;2040;50.924;11.604;2023-04-03T04:17:00;-0.80;99.90
4052;DHT22;2040;50.924;11.604;2023-04-03T04:19:27;-0.80;99.90
4052;DHT22;2040;50.924;11.604;2023-04-03T04:21:53;-0.80;99.90
4052;DHT22;2040;50.924;11.604;2023-04-03T04:24:18;-0.90;99.90
4052;DHT22;2040;50.924;11.604;2023-04-03T04:26:44;-0.90;99.90
4052;DHT22;2040;50.924;11.604;2023-04-03T04:29:10;-0.90;99.90
4052;DHT22;2040;50.924;11.604;2023-04-03T04:31:36;-0.90;99.90
4052;DHT22;2040;50.924;11.604;2023-04-03T04:34:01;-0.90;99.90
4052;DHT22;2040;50.924;11.604;2023-04-03T04:36:27;-1.00;99.90
4052;DHT22;2040;50.924;11.604;2023-04-03T04:38:52;-1.00;99.90
4052;DHT22;2040;50.924;11.604;2023-04-03T04:41:20;-1.00;99.90
4052;DHT22;2040;50.924;11.604;2023-04-03T04:43:51;-1.00;99.90
4052;DHT22;2040;50.924;11.604;2023-04-03T04:46:17;-0.90;99.90
4052;DHT22;2040;50.924;11.604;2023-04-03T04:48:43;-0.90;99.90
4052;DHT22;2040;50.924;11.604;2023-04-03T04:51:09;-0.90;99.90
4052;DHT22;2040;50.924;11.604;2023-04-03T04:53:35;-0.80;99.90
4052;DHT22;2040;50.924;11.604;2023-04-03T04:56:00;-0.80;99.90
4052;DHT22;2040;50.924;11.604;2023-04-03T04:58:26;-0.80;99.90
4052;DHT22;2040;50.924;11.604;2023-04-03T05:00:59;-0.80;99.90
4052;DHT22;2040;50.924;11.604;2023-04-03T05:03:25;-0.70;99.90
4052;DHT22;2040;50.924;11.604;2023-04-03T05:05:51;-0.70;99.90
4052;DHT22;2040;50.924;11.604;2023-04-03T05:08:16;-0.70;99.90
4052;DHT22;2040;50.924;11.604;2023-04-03T05:10:42;-0.80;99.90
4052;DHT22;2040;50.924;11.604;2023-04-03T05:13:08;-0.70;99.90
4052;DHT22;2040;50.924;11.604;2023-04-03T05:15:33;-0.70;99.90
4052;DHT22;2040;50.924;11.604;2023-04-03T05:17:59;-0.70;99.90
4052;DHT22;2040;50.924;11.604;2023-04-03T05:20:25;-0.60;99.90
4052;DHT22;2040;50.924;11.604;2023-04-03T05:22:50;-0.60;99.90
4052;DHT22;2040;50.924;11.604;2023-04-03T05:25:16;-0.70;99.90
4052;DHT22;2040;50.924;11.604;2023-04-03T05:27:41;-0.60;99.90
4052;DHT22;2040;50.924;11.604;2023-04-03T05:30:08;-0.50;99.90
4052;DHT22;2040;50.924;11.604;2023-04-03T05:32:33;-0.50;99.90
4052;DHT22;2040;50.924;11.604;2023-04-03T05:34:59;-0.40;99.90
4052;DHT22;2040;50.924;11.604;2023-04-03T05:37:25;-0.40;99.90
4052;DHT22;2040;50.924;11.604;2023-04-03T05:39:50;-0.40;99.90
4052;DHT22;2040;50.924;11.604;2023-04-03T05:42:16;-0.50;99.90
4052;DHT22;2040;50.924;11.604;2023-04-03T05:44:43;-0.40;99.90
4052;DHT22;2040;50.924;11.604;2023-04-03T05:47:09;-0.40;99.90
4052;DHT22;2040;50.924;11.604;2023-04-03T05:49:35;-0.50;99.90
4052;DHT22;2040;50.924;11.604;2023-04-03T05:52:01;-0.40;99.90
4052;DHT22;2040;50.924;11.604;2023-04-03T05:54:28;-0.40;99.90
4052;DHT22;2040;50.924;11.604;2023-04-03T05:56:55;-0.40;99.90
4052;DHT22;2040;50.924;11.604;2023-04-03T05:59:20;-0.30;99.90
4052;DHT22;2040;50.924;11.604;2023-04-03T06:01:47;-0.30;99.90
4052;DHT22;2040;50.924;11.604;2023-04-03T06:04:12;-0.30;99.90
4052;DHT22;2040;50.924;11.604;2023-04-03T06:06:53;-0.30;99.90
4052;DHT22;2040;50.924;11.604;2023-04-03T06:09:20;-0.30;99.90
4052;DHT22;2040;50.924;11.604;2023-04-03T06:11:46;-0.30;99.90
4052;DHT22;2040;50.924;11.604;2023-04-03T06:14:12;-0.20;99.90
4052;DHT22;2040;50.924;11.604;2023-04-03T06:16:38;-0.20;99.90
4052;DHT22;2040;50.924;11.604;2023-04-03T06:19:05;-0.20;99.90
4052;DHT22;2040;50.924;11.604;2023-04-03T06:21:31;-0.10;99.90
4052;DHT22;2040;50.924;11.604;2023-04-03T06:23:57;0.00;99.90
4052;DHT22;2040;50.924;11.604;2023-04-03T06:26:22;0.10;99.90
4052;DHT22;2040;50.924;11.604;2023-04-03T06:28:48;0.10;99.90
4052;DHT22;2040;50.924;11.604;2023-04-03T06:31:14;0.00;99.90
4052;DHT22;2040;50.924;11.604;2023-04-03T06:33:40;0.00;99.90
4052;DHT22;2040;50.924;11.604;2023-04-03T06:36:06;0.00;99.90
4052;DHT22;2040;50.924;11.604;2023-04-03T06:38:33;0.10;99.90
4052;DHT22;2040;50.924;11.604;2023-04-03T06:40:59;0.20;99.90
4052;DHT22;2040;50.924;11.604;2023-04-03T06:43:25;0.30;99.90
4052;DHT22;2040;50.924;11.604;2023-04-03T06:45:52;0.40;99.90
4052;DHT22;2040;50.924;11.604;2023-04-03T06:48:17;0.50;99.90
4052;DHT22;2040;50.924;11.604;2023-04-03T06:50:43;0.70;99.90
4052;DHT22;2040;50.924;11.604;2023-04-03T06:53:09;0.60;99.90
4052;DHT22;2040;50.924;11.604;2023-04-03T06:55:36;0.70;99.90
4052;DHT22;2040;50.924;11.604;2023-04-03T06:58:02;0.70;99.90
4052;DHT22;2040;50.924;11.604;2023-04-03T07:00:29;0.70;99.90
4052;DHT22;2040;50.924;11.604;2023-04-03T07:02:55;0.80;99.90
4052;DHT22;2040;50.924;11.604;2023-04-03T07:05:23;0.70;99.90
4052;DHT22;2040;50.924;11.604;2023-04-03T07:07:49;0.80;99.90
4052;DHT22;2040;50.924;11.604;2023-04-03T07:10:15;0.90;99.90
4052;DHT22;2040;50.924;11.604;2023-04-03T07:12:41;0.90;99.90
4052;DHT22;2040;50.924;11.604;2023-04-03T07:15:07;0.60;99.90
4052;DHT22;2040;50.924;11.604;2023-04-03T07:17:33;0.60;99.90
4052;DHT22;2040;50.924;11.604;2023-04-03T07:19:59;0.70;99.90
4052;DHT22;2040;50.924;11.604;2023-04-03T07:22:24;0.60;99.90
4052;DHT22;2040;50.924;11.604;2023-04-03T07:24:50;0.60;99.90
4052;DHT22;2040;50.924;11.604;2023-04-03T07:27:16;0.70;99.90
4052;DHT22;2040;50.924;11.604;2023-04-03T07:29:42;0.80;99.90
4052;DHT22;2040;50.924;11.604;2023-04-03T07:32:09;0.80;99.90
4052;DHT22;2040;50.924;11.604;2023-04-03T07:34:35;0.80;99.90
4052;DHT22;2040;50.924;11.604;2023-04-03T07:37:01;0.90;99.90
4052;DHT22;2040;50.924;11.604;2023-04-03T07:39:28;0.90;99.90
4052;DHT22;2040;50.924;11.604;2023-04-03T07:41:54;1.10;99.90
4052;DHT22;2040;50.924;11.604;2023-04-03T07:44:21;1.00;99.90
4052;DHT22;2040;50.924;11.604;2023-04-03T07:46:47;1.00;99.90
4052;DHT22;2040;50.924;11.604;2023-04-03T07:49:14;1.10;99.90
4052;DHT22;2040;50.924;11.604;2023-04-03T07:51:39;1.20;99.90
4052;DHT22;2040;50.924;11.604;2023-04-03T07:54:06;1.20;99.90
4052;DHT22;2040;50.924;11.604;2023-04-03T07:56:31;1.20;99.90
4052;DHT22;2040;50.924;11.604;2023-04-03T07:58:57;1.00;99.90
4052;DHT22;2040;50.924;11.604;2023-04-03T08:01:23;1.10;99.90
4052;DHT22;2040;50.924;11.604;2023-04-03T08:03:48;1.40;99.90
4052;DHT22;2040;50.924;11.604;2023-04-03T08:06:14;1.60;99.90
4052;DHT22;2040;50.924;11.604;2023-04-03T08:08:40;1.90;99.90
4052;DHT22;2040;50.924;11.604;2023-04-03T08:11:06;1.70;99.90
4052;DHT22;2040;50.924;11.604;2023-04-03T08:13:33;1.70;99.90
4052;DHT22;2040;50.924;11.604;2023-04-03T08:16:15;1.60;99.90
4052;DHT22;2040;50.924;11.604;2023-04-03T08:18:41;1.50;99.90
4052;DHT22;2040;50.924;11.604;2023-04-03T08:21:09;1.90;99.90
4052;DHT22;2040;50.924;11.604;2023-04-03T08:23:35;2.10;99.90
4052;DHT22;2040;50.924;11.604;2023-04-03T08:26:13;2.40;99.90
4052;DHT22;2040;50.924;11.604;2023-04-03T08:28:39;2.60;99.90
4052;DHT22;2040;50.924;11.604;2023-04-03T08:31:07;2.80;99.90
4052;DHT22;2040;50.924;11.604;2023-04-03T08:33:34;2.70;99.90
4052;DHT22;2040;50.924;11.604;2023-04-03T08:36:02;2.90;99.90
4052;DHT22;2040;50.924;11.604;2023-04-03T08:38:27;3.10;99.90
4052;DHT22;2040;50.924;11.604;2023-04-03T08:41:20;3.30;99.90
4052;DHT22;2040;50.924;11.604;2023-04-03T08:46:37;3.60;99.90
4052;DHT22;2040;50.924;11.604;2023-04-03T08:49:12;3.90;99.90
4052;DHT22;2040;50.924;11.604;2023-04-03T08:51:41;4.20;99.90
4052;DHT22;2040;50.924;11.604;2023-04-03T08:55:05;4.60;99.90
4052;DHT22;2040;50.924;11.604;2023-04-03T08:57:11;4.80;99.90
4052;DHT22;2040;50.924;11.604;2023-04-03T08:59:38;4.90;99.90
4052;DHT22;2040;50.924;11.604;2023-04-03T09:04:52;4.50;99.90
4052;DHT22;2040;50.924;11.604;2023-04-03T09:07:25;4.50;99.90
4052;DHT22;2040;50.924;11.604;2023-04-03T09:09:55;4.80;99.90
4052;DHT22;2040;50.924;11.604;2023-04-03T09:12:32;4.80;99.90
4052;DHT22;2040;50.924;11.604;2023-04-03T09:17:41;4.40;99.90
4052;DHT22;2040;50.924;11.604;2023-04-03T09:22:45;4.00;99.90
4052;DHT22;2040;50.924;11.604;2023-04-03T09:25:31;3.50;99.90
4052;DHT22;2040;50.924;11.604;2023-04-03T09:27:59;3.60;99.90
4052;DHT22;2040;50.924;11.604;2023-04-03T09:30:26;3.40;99.90
4052;DHT22;2040;50.924;11.604;2023-04-03T09:32:53;3.50;99.90
4052;DHT22;2040;50.924;11.604;2023-04-03T09:35:26;3.40;99.90
4052;DHT22;2040;50.924;11.604;2023-04-03T09:37:58;3.40;99.90
4052;DHT22;2040;50.924;11.604;2023-04-03T09:42:52;4.10;99.90
4052;DHT22;2040;50.924;11.604;2023-04-03T09:45:37;4.30;99.90
4052;DHT22;2040;50.924;11.604;2023-04-03T09:50:38;4.20;99.90
4052;DHT22;2040;50.924;11.604;2023-04-03T09:53:06;4.20;99.90
4052;DHT22;2040;50.924;11.604;2023-04-03T09:55:42;4.20;99.90
4052;DHT22;2040;50.924;11.604;2023-04-03T09:58:24;4.30;99.90
4052;DHT22;2040;50.924;11.604;2023-04-03T10:01:25;4.70;99.90
4052;DHT22;2040;50.924;11.604;2023-04-03T10:06:33;4.30;99.90
4052;DHT22;2040;50.924;11.604;2023-04-03T10:09:10;4.00;99.90
4052;DHT22;2040;50.924;11.604;2023-04-03T10:12:01;4.40;99.90
4052;DHT22;2040;50.924;11.604;2023-04-03T10:14:29;4.30;99.90
4052;DHT22;2040;50.924;11.604;2023-04-03T10:19:36;4.40;99.90
4052;DHT22;2040;50.924;11.604;2023-04-03T10:22:18;4.70;99.90
4052;DHT22;2040;50.924;11.604;2023-04-03T10:25:03;4.90;99.90
4052;DHT22;2040;50.924;11.604;2023-04-03T10:27:42;5.00;99.90
4052;DHT22;2040;50.924;11.604;2023-04-03T10:30:42;5.00;99.90
4052;DHT22;2040;50.924;11.604;2023-04-03T10:33:18;4.80;99.90
4052;DHT22;2040;50.924;11.604;2023-04-03T10:38:51;4.30;99.90
4052;DHT22;2040;50.924;11.604;2023-04-03T10:46:55;4.70;99.90
4052;DHT22;2040;50.924;11.604;2023-04-03T10:49:54;4.90;99.90
4052;DHT22;2040;50.924;11.604;2023-04-03T10:52:35;5.40;99.90
4052;DHT22;2040;50.924;11.604;2023-04-03T10:57:40;6.20;99.90
4052;DHT22;2040;50.924;11.604;2023-04-03T11:00:18;6.30;99.90
4052;DHT22;2040;50.924;11.604;2023-04-03T11:02:55;5.80;99.90
4052;DHT22;2040;50.924;11.604;2023-04-03T11:05:36;5.60;99.90
4052;DHT22;2040;50.924;11.604;2023-04-03T11:10:44;4.90;99.90
4052;DHT22;2040;50.924;11.604;2023-04-03T11:13:17;5.10;99.90
4052;DHT22;2040;50.924;11.604;2023-04-03T11:15:44;5.10;99.90
4052;DHT22;2040;50.924;11.604;2023-04-03T11:18:14;5.00;99.90
4052;DHT22;2040;50.924;11.604;2023-04-03T11:20:50;5.00;99.90
4052;DHT22;2040;50.924;11.604;2023-04-03T11:23:25;5.60;99.90
4052;DHT22;2040;50.924;11.604;2023-04-03T11:26:06;6.30;99.90
4052;DHT22;2040;50.924;11.604;2023-04-03T11:28:32;6.40;99.90
4052;DHT22;2040;50.924;11.604;2023-04-03T11:31:13;6.50;99.90
4052;DHT22;2040;50.924;11.604;2023-04-03T11:34:08;6.30;99.90
4052;DHT22;2040;50.924;11.604;2023-04-03T11:36:59;5.80;99.90
4052;DHT22;2040;50.924;11.604;2023-04-03T11:39:37;5.50;99.90
4052;DHT22;2040;50.924;11.604;2023-04-03T11:42:25;5.30;99.90
4052;DHT22;2040;50.924;11.604;2023-04-03T11:45:26;5.20;99.90
4052;DHT22;2040;50.924;11.604;2023-04-03T11:47:55;5.20;99.90
4052;DHT22;2040;50.924;11.604;2023-04-03T11:53:10;6.30;99.90
4052;DHT22;2040;50.924;11.604;2023-04-03T12:00:56;6.70;99.90
4052;DHT22;2040;50.924;11.604;2023-04-03T12:16:30;6.50;99.90
4052;DHT22;2040;50.924;11.604;2023-04-03T12:26:36;7.20;99.90
4052;DHT22;2040;50.924;11.604;2023-04-03T12:29:22;6.40;99.90
4052;DHT22;2040;50.924;11.604;2023-04-03T12:32:14;6.20;99.90
4052;DHT22;2040;50.924;11.604;2023-04-03T12:38:10;5.80;99.90
4052;DHT22;2040;50.924;11.604;2023-04-03T12:48:27;7.40;99.90
4052;DHT22;2040;50.924;11.604;2023-04-03T12:50:54;7.40;99.90
4052;DHT22;2040;50.924;11.604;2023-04-03T12:53:35;6.90;99.90
4052;DHT22;2040;50.924;11.604;2023-04-03T12:56:25;6.80;99.90
4052;DHT22;2040;50.924;11.604;2023-04-03T12:58:53;6.80;99.90
4052;DHT22;2040;50.924;11.604;2023-04-03T13:01:25;6.80;99.90
4052;DHT22;2040;50.924;11.604;2023-04-03T13:03:57;6.00;99.90
4052;DHT22;2040;50.924;11.604;2023-04-03T13:06:24;5.90;99.90
4052;DHT22;2040;50.924;11.604;2023-04-03T13:08:57;5.60;99.90
4052;DHT22;2040;50.924;11.604;2023-04-03T13:11:24;5.40;99.90
4052;DHT22;2040;50.924;11.604;2023-04-03T13:14:02;6.00;99.90
4052;DHT22;2040;50.924;11.604;2023-04-03T13:16:29;6.60;99.90
4052;DHT22;2040;50.924;11.604;2023-04-03T13:18:55;6.70;99.90
4052;DHT22;2040;50.924;11.604;2023-04-03T13:21:29;6.80;99.90
4052;DHT22;2040;50.924;11.604;2023-04-03T13:24:01;6.60;99.90
4052;DHT22;2040;50.924;11.604;2023-04-03T13:26:29;6.20;99.90
4052;DHT22;2040;50.924;11.604;2023-04-03T13:28:59;6.20;99.90
4052;DHT22;2040;50.924;11.604;2023-04-03T13:31:38;6.30;99.90
4052;DHT22;2040;50.924;11.604;2023-04-03T13:34:15;6.40;99.90
4052;DHT22;2040;50.924;11.604;2023-04-03T13:41:48;7.70;99.90
4052;DHT22;2040;50.924;11.604;2023-04-03T13:47:16;7.60;99.90
4052;DHT22;2040;50.924;11.604;2023-04-03T13:49:45;7.30;99.90
4052;DHT22;2040;50.924;11.604;2023-04-03T13:52:27;6.90;99.90
4052;DHT22;2040;50.924;11.604;2023-04-03T13:55:00;6.50;99.90
4052;DHT22;2040;50.924;11.604;2023-04-03T13:57:27;6.40;99.90
4052;DHT22;2040;50.924;11.604;2023-04-03T13:59:53;6.20;99.90
4052;DHT22;2040;50.924;11.604;2023-04-03T14:02:28;6.10;99.90
4052;DHT22;2040;50.924;11.604;2023-04-03T14:04:57;6.00;99.90
4052;DHT22;2040;50.924;11.604;2023-04-03T14:07:25;6.30;99.90
4052;DHT22;2040;50.924;11.604;2023-04-03T14:09:52;6.20;99.90
4052;DHT22;2040;50.924;11.604;2023-04-03T14:12:24;5.80;99.90
4052;DHT22;2040;50.924;11.604;2023-04-03T14:14:51;5.70;99.90
4052;DHT22;2040;50.924;11.604;2023-04-03T14:17:19;5.50;99.90
4052;DHT22;2040;50.924;11.604;2023-04-03T14:19:46;5.50;99.90
4052;DHT22;2040;50.924;11.604;2023-04-03T14:22:18;5.40;99.90
4052;DHT22;2040;50.924;11.604;2023-04-03T14:24:45;5.60;99.90
4052;DHT22;2040;50.924;11.604;2023-04-03T14:27:27;5.60;99.90
4052;DHT22;2040;50.924;11.604;2023-04-03T14:29:55;5.50;99.90
4052;DHT22;2040;50.924;11.604;2023-04-03T14:32:23;5.50;99.90
4052;DHT22;2040;50.924;11.604;2023-04-03T14:34:50;5.50;99.90
4052;DHT22;2040;50.924;11.604;2023-04-03T14:37:19;5.70;99.90
4052;DHT22;2040;50.924;11.604;2023-04-03T14:39:46;6.10;99.90
4052;DHT22;2040;50.924;11.604;2023-04-03T14:42:17;6.60;99.90
4052;DHT22;2040;50.924;11.604;2023-04-03T14:44:44;6.40;99.90
4052;DHT22;2040;50.924;11.604;2023-04-03T14:47:15;6.10;99.90
4052;DHT22;2040;50.924;11.604;2023-04-03T14:49:42;5.90;99.90
4052;DHT22;2040;50.924;11.604;2023-04-03T14:54:44;5.50;99.90
4052;DHT22;2040;50.924;11.604;2023-04-03T14:57:13;5.50;99.90
4052;DHT22;2040;50.924;11.604;2023-04-03T14:59:39;5.30;99.90
4052;DHT22;2040;50.924;11.604;2023-04-03T15:04:50;5.20;99.90
4052;DHT22;2040;50.924;11.604;2023-04-03T15:07:16;5.30;99.90
4052;DHT22;2040;50.924;11.604;2023-04-03T15:09:41;5.10;99.90
4052;DHT22;2040;50.924;11.604;2023-04-03T15:12:08;4.90;99.90
4052;DHT22;2040;50.924;11.604;2023-04-03T15:14:34;5.10;99.90
4052;DHT22;2040;50.924;11.604;2023-04-03T15:17:00;5.00;99.90
4052;DHT22;2040;50.924;11.604;2023-04-03T15:19:26;5.10;99.90
4052;DHT22;2040;50.924;11.604;2023-04-03T15:21:51;5.20;99.90
4052;DHT22;2040;50.924;11.604;2023-04-03T15:24:17;5.30;99.90
4052;DHT22;2040;50.924;11.604;2023-04-03T15:26:43;5.30;99.90
4052;DHT22;2040;50.924;11.604;2023-04-03T15:29:08;5.20;99.90
4052;DHT22;2040;50.924;11.604;2023-04-03T15:31:34;4.80;99.90
4052;DHT22;2040;50.924;11.604;2023-04-03T15:34:00;4.70;99.90
4052;DHT22;2040;50.924;11.604;2023-04-03T15:36:25;4.60;99.90
4052;DHT22;2040;50.924;11.604;2023-04-03T15:38:51;4.60;99.90
4052;DHT22;2040;50.924;11.604;2023-04-03T15:41:16;4.50;99.90
4052;DHT22;2040;50.924;11.604;2023-04-03T15:43:42;4.40;99.90
4052;DHT22;2040;50.924;11.604;2023-04-03T15:46:08;4.50;99.90
4052;DHT22;2040;50.924;11.604;2023-04-03T15:48:34;4.60;99.90
4052;DHT22;2040;50.924;11.604;2023-04-03T15:51:00;4.70;99.90
4052;DHT22;2040;50.924;11.604;2023-04-03T15:53:26;4.80;99.90
4052;DHT22;2040;50.924;11.604;2023-04-03T15:55:52;5.00;99.90
4052;DHT22;2040;50.924;11.604;2023-04-03T15:58:17;5.20;99.90
4052;DHT22;2040;50.924;11.604;2023-04-03T16:00:44;5.10;99.90
4052;DHT22;2040;50.924;11.604;2023-04-03T16:03:16;4.90;99.90
4052;DHT22;2040;50.924;11.604;2023-04-03T16:05:42;4.60;99.90
4052;DHT22;2040;50.924;11.604;2023-04-03T16:08:08;4.30;99.90
4052;DHT22;2040;50.924;11.604;2023-04-03T16:10:38;4.20;99.90
4052;DHT22;2040;50.924;11.604;2023-04-03T16:13:05;4.20;99.90
4052;DHT22;2040;50.924;11.604;2023-04-03T16:15:31;4.20;99.90
4052;DHT22;2040;50.924;11.604;2023-04-03T16:17:59;4.20;99.90
4052;DHT22;2040;50.924;11.604;2023-04-03T16:20:25;4.10;99.90
4052;DHT22;2040;50.924;11.604;2023-04-03T16:22:52;4.00;99.90
4052;DHT22;2040;50.924;11.604;2023-04-03T16:25:18;4.10;99.90
4052;DHT22;2040;50.924;11.604;2023-04-03T16:27:44;4.10;99.90
4052;DHT22;2040;50.924;11.604;2023-04-03T16:30:10;4.20;99.90
4052;DHT22;2040;50.924;11.604;2023-04-03T16:32:37;4.10;99.90
4052;DHT22;2040;50.924;11.604;2023-04-03T16:35:04;3.90;99.90
4052;DHT22;2040;50.924;11.604;2023-04-03T16:37:29;3.90;99.90
4052;DHT22;2040;50.924;11.604;2023-04-03T16:39:55;3.90;99.90
4052;DHT22;2040;50.924;11.604;2023-04-03T16:42:21;3.80;99.90
4052;DHT22;2040;50.924;11.604;2023-04-03T16:44:46;3.70;99.90
4052;DHT22;2040;50.924;11.604;2023-04-03T16:47:12;3.60;99.90
4052;DHT22;2040;50.924;11.604;2023-04-03T16:49:39;3.40;99.90
4052;DHT22;2040;50.924;11.604;2023-04-03T16:52:05;3.40;99.90
4052;DHT22;2040;50.924;11.604;2023-04-03T16:54:31;3.40;99.90
4052;DHT22;2040;50.924;11.604;2023-04-03T16:56:57;3.40;99.90
4052;DHT22;2040;50.924;11.604;2023-04-03T16:59:23;3.40;99.90
4052;DHT22;2040;50.924;11.604;2023-04-03T17:01:49;3.30;99.90
4052;DHT22;2040;50.924;11.604;2023-04-03T17:04:15;3.30;99.90
4052;DHT22;2040;50.924;11.604;2023-04-03T17:06:40;3.30;99.90
4052;DHT22;2040;50.924;11.604;2023-04-03T17:09:07;3.10;99.90
4052;DHT22;2040;50.924;11.604;2023-04-03T17:11:33;3.10;99.90
4052;DHT22;2040;50.924;11.604;2023-04-03T17:13:58;3.00;99.90
4052;DHT22;2040;50.924;11.604;2023-04-03T17:16:25;3.10;99.90
4052;DHT22;2040;50.924;11.604;2023-04-03T17:18:52;3.00;99.90
4052;DHT22;2040;50.924;11.604;2023-04-03T17:21:19;3.10;99.90
4052;DHT22;2040;50.924;11.604;2023-04-03T17:23:48;3.00;99.90
4052;DHT22;2040;50.924;11.604;2023-04-03T17:26:14;3.00;99.90
4052;DHT22;2040;50.924;11.604;2023-04-03T17:28:39;3.00;99.90
4052;DHT22;2040;50.924;11.604;2023-04-03T17:31:06;3.10;99.90
4052;DHT22;2040;50.924;11.604;2023-04-03T17:33:31;3.10;99.90
4052;DHT22;2040;50.924;11.604;2023-04-03T17:35:59;3.10;99.90